NC63 weather

Robertson Field
Winston Salem, North Carolina, United States

Public forecast

Using degrees Fahrenheit for public forecast. Weather courtesy of forecast.io.

Closest aviation weather report (METAR) to Robertson Field

Closest report is Smith Reynolds Airport, 1.8 nm (3.3 km) W. Retrieved 2020/08/07 13:54 UTC (31 minutes ago):

KINT 071354Z 00000KT 10SM OVC024 23/20 A3014 RMK AO2 SLP196 T02280200

Closest aviation forecast (TAF) to Robertson Field

Closest forecast is Smith Reynolds Airport, 1.8 nm (3.3 km) W. Retrieved 2020/08/07 12:22 UTC (2 hours ago):

TAF KINT 071120Z 0712/0812 00000KT 3SM BR SCT002 OVC025 TEMPO 0712/0713 1 1/2SM BR BKN002 FM071300 18005KT P6SM BKN007 FM071500 20005KT P6SM BKN015 FM071800 20005KT P6SM VCTS BKN040CB FM072300 VRB03KT P6SM BKN070